Time;durP1;ratioP1;P1;durP2;ratioP2;P2;SDS_P1;SDS_P2;PMS_P1;PMS_P2;Temp;Humidity;BMP_temperature;BMP_pressure;BME280_temperature;BME280_humidity;BME280_pressure;Samples;Min_cycle;Max_cycle;Signal;HPM_P1;HPM_P2
2021/08/12 00:01:13;;;;;;;7.50;4.80;;;;;;;17.11;91.89;98402.66;5027906;28;20228;-60
2021/08/12 00:03:39;;;;;;;9.57;5.22;;;;;;;17.10;92.14;98398.31;5027474;28;20772;-61
2021/08/12 00:06:05;;;;;;;7.70;4.80;;;;;;;17.14;92.79;98398.97;5027098;28;20395;-60
2021/08/12 00:08:30;;;;;;;8.13;5.07;;;;;;;16.99;93.37;98400.75;5027350;28;20388;-61
2021/08/12 00:10:55;;;;;;;10.60;5.18;;;;;;;16.76;93.96;98405.59;5026017;28;20679;-59
2021/08/12 00:13:21;;;;;;;8.43;5.05;;;;;;;16.85;93.58;98398.13;5024809;28;20064;-62
2021/08/12 00:15:46;;;;;;;11.75;5.38;;;;;;;16.86;93.29;98399.81;5028024;28;20095;-60
2021/08/12 00:18:12;;;;;;;8.55;5.60;;;;;;;16.89;93.54;98402.25;5026791;28;20025;-62
2021/08/12 00:20:37;;;;;;;8.60;5.68;;;;;;;16.79;93.81;98398.47;5028270;28;20410;-60
2021/08/12 00:23:03;;;;;;;10.55;5.50;;;;;;;16.64;94.62;98401.06;5026678;28;20021;-62
2021/08/12 00:25:28;;;;;;;7.65;5.28;;;;;;;16.76;94.17;98392.44;5024993;28;20049;-63
2021/08/12 00:27:54;;;;;;;10.30;5.78;;;;;;;16.64;94.27;98397.59;5027496;28;20536;-61
2021/08/12 00:30:19;;;;;;;7.97;5.15;;;;;;;16.54;94.92;98397.25;5028304;28;20423;-61
2021/08/12 00:32:44;;;;;;;8.48;5.20;;;;;;;16.56;94.92;98392.78;5026936;28;20074;-60
2021/08/12 00:35:10;;;;;;;10.88;5.65;;;;;;;16.50;95.81;98399.22;5025876;28;20468;-60
2021/08/12 00:37:35;;;;;;;10.27;5.32;;;;;;;16.79;94.27;98404.56;5026137;28;20246;-60
2021/08/12 00:40:01;;;;;;;8.38;4.60;;;;;;;16.88;93.46;98404.03;5026702;28;20277;-60
2021/08/12 00:42:28;;;;;;;7.40;5.20;;;;;;;16.95;91.86;98404.53;5020209;28;20128;-60
2021/08/12 00:44:53;;;;;;;11.50;5.50;;;;;;;16.71;93.04;98407.66;5026599;28;20580;-61
2021/08/12 00:47:18;;;;;;;9.05;4.70;;;;;;;16.77;93.05;98403.81;5025676;28;20168;-59
2021/08/12 00:49:44;;;;;;;8.90;5.30;;;;;;;16.33;96.11;98397.59;5026196;28;20022;-60
2021/08/12 00:52:10;;;;;;;9.15;5.43;;;;;;;16.41;94.25;98396.31;5027608;28;20082;-60
2021/08/12 00:54:39;;;;;;;8.90;5.53;;;;;;;16.37;95.35;98395.63;5026546;28;20024;-60
2021/08/12 00:57:05;;;;;;;12.27;5.70;;;;;;;16.38;95.87;98394.72;5026580;28;20037;-62
2021/08/12 00:59:41;;;;;;;8.15;5.40;;;;;;;16.41;94.77;98393.66;5027883;28;20021;-59
2021/08/12 01:02:10;;;;;;;10.45;5.22;;;;;;;16.14;96.48;98392.56;5025254;28;20170;-61
2021/08/12 01:04:49;;;;;;;11.65;5.50;;;;;;;16.20;96.58;98401.88;5025427;28;20055;-61
2021/08/12 01:07:26;;;;;;;8.65;4.88;;;;;;;16.18;96.03;98403.75;5022934;28;20888;-59
2021/08/12 01:10:11;;;;;;;6.65;4.45;;;;;;;16.33;95.13;98402.84;5024181;28;20402;-61
2021/08/12 01:12:45;;;;;;;9.57;5.72;;;;;;;16.19;96.06;98405.44;5027274;28;20045;-60
2021/08/12 01:15:16;;;;;;;10.10;4.95;;;;;;;16.50;93.75;98401.03;5024103;28;20013;-63
2021/08/12 01:17:47;;;;;;;9.18;5.05;;;;;;;16.25;94.38;98410.38;5034154;28;20017;-61
2021/08/12 01:21:21;;;;;;;9.15;5.47;;;;;;;16.21;95.13;98405.34;5024415;28;20124;-63
2021/08/12 01:23:47;;;;;;;10.27;5.45;;;;;;;16.08;95.36;98408.72;4919050;28;20032;-61
2021/08/12 01:26:18;;;;;;;11.20;5.07;;;;;;;16.12;95.75;98404.97;4956728;28;20486;-61
2021/08/12 01:28:47;;;;;;;10.10;5.20;;;;;;;15.94;96.88;98412.09;5004978;28;20043;-59
2021/08/12 01:31:13;;;;;;;8.25;5.43;;;;;;;16.16;95.43;98405.63;5024302;28;20048;-62
2021/08/12 01:34:16;;;;;;;8.55;5.07;;;;;;;16.11;95.25;98402.41;5026042;28;20029;-60
2021/08/12 01:36:43;;;;;;;9.88;5.20;;;;;;;16.05;95.68;98400.13;5013469;28;20075;-60
2021/08/12 01:39:11;;;;;;;8.55;5.40;;;;;;;15.95;96.02;98399.78;5026069;28;20052;-61
2021/08/12 01:41:38;;;;;;;9.10;5.53;;;;;;;16.09;95.96;98396.38;5025959;28;20127;-60
2021/08/12 01:44:05;;;;;;;9.63;5.10;;;;;;;16.03;95.98;98399.34;5025852;28;20049;-61
2021/08/12 01:46:32;;;;;;;13.80;4.85;;;;;;;16.31;95.79;98393.38;5026036;28;20084;-60
2021/08/12 01:49:01;;;;;;;12.18;5.30;;;;;;;16.21;94.41;98400.09;5025869;28;20020;-62
2021/08/12 01:51:27;;;;;;;7.07;4.63;;;;;;;16.50;93.01;98398.41;5021646;28;20091;-59
2021/08/12 01:53:53;;;;;;;11.30;5.13;;;;;;;16.25;92.71;98402.47;5024644;28;20525;-60
2021/08/12 01:56:20;;;;;;;10.57;5.10;;;;;;;15.99;92.74;98396.91;5026122;28;20039;-59
2021/08/12 01:58:46;;;;;;;9.38;4.70;;;;;;;15.84;93.39;98415.34;5026366;28;20021;-62
2021/08/12 02:01:12;;;;;;;6.85;4.60;;;;;;;15.90;92.85;98410.59;5026697;28;20041;-60
2021/08/12 02:03:39;;;;;;;10.57;4.63;;;;;;;15.83;94.21;98409.22;5026164;28;20159;-61
2021/08/12 02:06:05;;;;;;;7.22;4.68;;;;;;;15.82;94.15;98407.53;5024295;28;20036;-62
2021/08/12 02:08:31;;;;;;;10.52;4.72;;;;;;;15.80;92.99;98407.59;5022521;28;20079;-60
2021/08/12 02:10:56;;;;;;;10.13;4.75;;;;;;;15.81;93.35;98411.09;5024970;28;20083;-60
2021/08/12 02:13:24;;;;;;;6.82;4.60;;;;;;;15.50;94.58;98414.53;5026108;28;20695;-59
2021/08/12 02:15:50;;;;;;;8.95;5.30;;;;;;;15.44;95.14;98405.22;5024787;28;20044;-61
2021/08/12 02:18:15;;;;;;;10.32;5.40;;;;;;;15.42;95.34;98404.44;5027065;28;20032;-59
2021/08/12 02:20:41;;;;;;;10.43;6.00;;;;;;;15.39;97.25;98405.44;5029406;28;20060;-61
2021/08/12 02:23:14;;;;;;;12.32;5.50;;;;;;;15.58;96.73;98404.44;5029114;28;20029;-59
2021/08/12 02:25:43;;;;;;;9.75;5.50;;;;;;;15.36;97.85;98399.50;5028135;28;20154;-62
2021/08/12 02:28:10;;;;;;;8.25;4.70;;;;;;;15.42;97.83;98399.19;5028319;28;20411;-59
2021/08/12 02:30:42;;;;;;;10.18;5.32;;;;;;;15.64;96.28;98404.13;5028209;28;20543;-61
2021/08/12 02:33:12;;;;;;;10.15;5.30;;;;;;;15.69;96.27;98391.53;5029253;28;20197;-60
2021/08/12 02:35:38;;;;;;;10.88;5.78;;;;;;;15.84;95.46;98389.88;5026467;28;20033;-60
2021/08/12 02:38:07;;;;;;;8.10;5.65;;;;;;;15.59;96.68;98388.59;5027756;28;20028;-61
2021/08/12 02:40:35;;;;;;;7.82;5.28;;;;;;;15.70;96.57;98379.28;5027663;28;20051;-60
2021/08/12 02:43:01;;;;;;;9.90;5.38;;;;;;;15.68;95.64;98378.47;5030431;28;20494;-62
2021/08/12 02:45:28;;;;;;;7.68;5.05;;;;;;;15.64;95.60;98383.09;5025840;28;20747;-60
2021/08/12 02:47:55;;;;;;;8.50;4.97;;;;;;;15.78;95.40;98384.97;5027133;28;20030;-60
2021/08/12 02:50:21;;;;;;;8.57;4.20;;;;;;;15.71;95.43;98383.56;5029075;28;20863;-61
2021/08/12 02:52:49;;;;;;;10.30;5.63;;;;;;;15.76;95.06;98381.56;5029400;28;20160;-61
2021/08/12 02:55:16;;;;;;;9.23;5.53;;;;;;;15.59;95.95;98385.97;5028429;28;20100;-60
2021/08/12 02:57:41;;;;;;;9.73;5.38;;;;;;;15.75;94.99;98390.38;5029834;28;20017;-62
2021/08/12 03:00:08;;;;;;;12.07;6.55;;;;;;;15.68;95.10;98386.38;5026693;28;20064;-60
2021/08/12 03:02:34;;;;;;;12.95;7.60;;;;;;;15.56;95.73;98391.38;5027709;28;20643;-62
2021/08/12 03:05:00;;;;;;;10.38;6.50;;;;;;;15.54;95.56;98377.47;5026969;28;20029;-61
2021/08/12 03:07:27;;;;;;;9.57;6.25;;;;;;;15.69;95.12;98380.19;5028257;28;20110;-61
2021/08/12 03:09:54;;;;;;;9.43;5.78;;;;;;;15.67;94.90;98382.06;5026902;28;20549;-60
2021/08/12 03:12:21;;;;;;;9.90;6.22;;;;;;;15.33;96.59;98381.25;5026063;28;20330;-61
2021/08/12 03:14:51;;;;;;;10.13;6.03;;;;;;;15.61;95.30;98389.34;5027689;28;20033;-62
2021/08/12 03:17:18;;;;;;;11.93;5.68;;;;;;;15.48;95.99;98377.81;5027497;28;20152;-60
2021/08/12 03:19:44;;;;;;;9.07;5.75;;;;;;;15.51;95.94;98375.03;5027603;28;20025;-60
2021/08/12 03:22:13;;;;;;;10.27;5.50;;;;;;;15.39;95.87;98370.44;5026143;28;20045;-62
2021/08/12 03:24:43;;;;;;;10.57;5.53;;;;;;;15.50;96.21;98369.84;5024692;28;20029;-64
2021/08/12 03:27:11;;;;;;;10.13;5.07;;;;;;;15.68;94.34;98362.69;5028393;28;20510;-61
2021/08/12 03:29:41;;;;;;;10.52;5.32;;;;;;;15.42;96.55;98372.91;5028919;28;20537;-63
2021/08/12 03:32:07;;;;;;;11.05;5.47;;;;;;;15.55;94.67;98373.91;5027424;28;20045;-61
2021/08/12 03:34:34;;;;;;;7.80;4.70;;;;;;;15.72;95.02;98382.66;5026532;28;20493;-60
2021/08/12 03:36:59;;;;;;;10.38;5.05;;;;;;;15.64;94.46;98376.97;5028171;28;20276;-61
2021/08/12 03:39:27;;;;;;;7.30;5.20;;;;;;;15.21;95.74;98388.03;5026656;28;20029;-61
2021/08/12 03:41:52;;;;;;;11.00;5.82;;;;;;;14.99;98.40;98375.22;5027249;28;20037;-61
2021/08/12 03:44:18;;;;;;;9.93;5.68;;;;;;;14.91;98.33;98377.41;5027236;28;20032;-60
2021/08/12 03:46:44;;;;;;;8.30;4.95;;;;;;;15.23;97.10;98373.88;5028281;28;20534;-60
2021/08/12 03:49:09;;;;;;;7.68;4.53;;;;;;;15.55;95.31;98373.91;5027552;28;20079;-61
2021/08/12 03:51:35;;;;;;;8.65;5.57;;;;;;;15.28;95.89;98375.44;5026130;28;20033;-61
2021/08/12 03:54:00;;;;;;;8.43;4.85;;;;;;;15.10;97.86;98382.53;5027592;28;20032;-63
2021/08/12 03:56:26;;;;;;;8.82;5.50;;;;;;;15.16;97.80;98383.06;5026946;28;20587;-63
2021/08/12 03:58:51;;;;;;;6.88;4.95;;;;;;;15.38;96.96;98379.25;5025895;28;20031;-60
2021/08/12 04:01:17;;;;;;;8.80;5.18;;;;;;;15.49;95.77;98382.13;5026612;28;20068;-64
2021/08/12 04:03:42;;;;;;;9.30;5.10;;;;;;;15.40;96.11;98385.25;5026509;28;20059;-62
2021/08/12 04:06:07;;;;;;;10.43;5.28;;;;;;;15.15;96.78;98386.59;5027539;28;20041;-62
2021/08/12 04:08:34;;;;;;;8.50;5.03;;;;;;;15.64;94.66;98376.97;5027625;28;20468;-60
2021/08/12 04:11:00;;;;;;;8.35;5.40;;;;;;;15.10;96.82;98378.09;5025574;28;20112;-60
2021/08/12 04:13:25;;;;;;;8.27;5.22;;;;;;;15.40;96.17;98385.25;5028941;28;20089;-62
2021/08/12 04:15:50;;;;;;;9.55;5.32;;;;;;;15.47;95.76;98378.75;5025584;28;20037;-63
2021/08/12 04:18:16;;;;;;;7.00;5.30;;;;;;;15.55;94.30;98379.19;5027720;28;20087;-62
2021/08/12 04:20:41;;;;;;;7.32;4.65;;;;;;;15.83;93.76;98375.03;5027726;28;20599;-60
2021/08/12 04:23:06;;;;;;;7.97;5.03;;;;;;;15.78;93.17;98379.69;5027257;28;20033;-60
2021/08/12 04:25:32;;;;;;;7.05;4.50;;;;;;;15.88;93.10;98380.91;5026207;28;20036;-61
2021/08/12 04:27:57;;;;;;;7.57;4.88;;;;;;;15.99;91.27;98370.59;5025190;28;20032;-62
2021/08/12 04:30:23;;;;;;;7.47;4.80;;;;;;;15.74;92.37;98373.75;5026588;28;20053;-61
2021/08/12 04:32:48;;;;;;;9.38;5.10;;;;;;;15.61;92.91;98378.00;5028339;28;20051;-62
2021/08/12 04:35:13;;;;;;;7.85;5.00;;;;;;;15.35;94.54;98380.28;5025626;28;20025;-62
2021/08/12 04:37:45;;;;;;;11.35;5.10;;;;;;;15.36;95.84;98381.94;5026958;28;20055;-61
2021/08/12 04:40:13;;;;;;;10.40;5.37;;;;;;;15.61;93.91;98378.00;5023855;28;20106;-61
2021/08/12 04:42:38;;;;;;;8.23;4.90;;;;;;;15.79;93.14;98378.78;5024237;28;20839;-61
2021/08/12 04:45:04;;;;;;;10.07;5.03;;;;;;;15.92;91.80;98382.41;5030471;28;20026;-60
2021/08/12 04:47:30;;;;;;;10.63;5.25;;;;;;;15.90;91.57;98376.38;5029448;28;20041;-62
2021/08/12 04:49:57;;;;;;;7.70;4.90;;;;;;;16.06;91.73;98383.41;5026792;28;20140;-64
2021/08/12 04:52:22;;;;;;;7.72;5.07;;;;;;;16.23;90.68;98385.91;5027933;28;20718;-61
2021/08/12 04:54:47;;;;;;;9.02;4.55;;;;;;;16.14;91.72;98383.81;5028549;28;20025;-63
2021/08/12 04:57:13;;;;;;;9.90;5.10;;;;;;;16.32;90.14;98380.13;5027183;28;20037;-60
2021/08/12 04:59:38;;;;;;;10.73;5.40;;;;;;;16.53;88.57;98385.91;5027992;28;20025;-62
2021/08/12 05:02:04;;;;;;;7.38;4.85;;;;;;;16.68;88.03;98389.41;5020072;28;20167;-61
2021/08/12 05:04:29;;;;;;;10.30;5.50;;;;;;;16.59;89.00;98384.69;5032476;28;20033;-62
2021/08/12 05:06:54;;;;;;;6.07;4.22;;;;;;;17.12;87.99;98396.44;5029245;28;20426;-63
2021/08/12 05:09:20;;;;;;;10.23;5.20;;;;;;;17.00;87.78;98397.19;5029330;28;20037;-62
2021/08/12 05:11:45;;;;;;;8.27;4.93;;;;;;;16.71;87.46;98397.13;5031465;28;20123;-61
2021/08/12 05:14:10;;;;;;;8.45;4.90;;;;;;;16.75;87.83;98398.63;5030155;28;20076;-60
2021/08/12 05:16:36;;;;;;;7.72;4.60;;;;;;;16.73;86.02;98397.88;5029864;28;20029;-60
2021/08/12 05:19:01;;;;;;;7.13;4.63;;;;;;;16.97;85.70;98394.75;5031544;28;20032;-60
2021/08/12 05:21:26;;;;;;;6.93;4.55;;;;;;;17.24;84.24;98394.84;5028893;28;20044;-61
2021/08/12 05:23:51;;;;;;;10.75;4.70;;;;;;;17.46;83.73;98404.03;5028646;28;20436;-59
2021/08/12 05:26:17;;;;;;;6.82;4.32;;;;;;;17.76;83.31;98400.41;5027931;28;20044;-61
2021/08/12 05:28:42;;;;;;;8.63;4.90;;;;;;;17.72;83.15;98399.75;5025172;28;20033;-61
2021/08/12 05:31:07;;;;;;;7.43;4.50;;;;;;;17.94;82.88;98403.66;5026541;28;20045;-58
2021/08/12 05:33:36;;;;;;;9.75;5.05;;;;;;;18.63;79.48;98402.59;5027874;28;20053;-60
2021/08/12 05:36:05;;;;;;;17.60;4.53;;;;;;;18.63;79.16;98405.22;5026281;28;20047;-59
2021/08/12 05:38:30;;;;;;;7.13;4.63;;;;;;;18.75;78.26;98408.00;5027998;28;20041;-60
2021/08/12 05:40:57;;;;;;;11.18;5.05;;;;;;;19.06;77.50;98399.69;5027590;28;20541;-62
2021/08/12 05:43:23;;;;;;;6.90;4.47;;;;;;;20.08;74.67;98408.38;5029222;28;20028;-61
2021/08/12 05:45:49;;;;;;;7.07;4.53;;;;;;;19.65;74.57;98406.16;5030310;28;20045;-59
2021/08/12 05:48:14;;;;;;;9.23;4.75;;;;;;;20.13;72.95;98410.69;5027019;28;20749;-62
2021/08/12 05:50:44;;;;;;;6.63;3.97;;;;;;;20.30;71.84;98412.09;5028777;28;20092;-62
2021/08/12 05:53:14;;;;;;;7.47;4.50;;;;;;;20.86;70.46;98417.59;5027072;28;20029;-61
2021/08/12 05:55:41;;;;;;;7.10;4.65;;;;;;;22.76;63.87;98408.56;5027887;28;20052;-59
2021/08/12 05:58:06;;;;;;;7.00;3.95;;;;;;;23.71;61.29;98417.28;5027522;28;20033;-61
2021/08/12 06:00:31;;;;;;;7.63;4.43;;;;;;;23.26;59.84;98416.72;5026717;28;20048;-60
2021/08/12 06:03:05;;;;;;;6.97;4.72;;;;;;;22.70;62.65;98411.75;5028316;28;20040;-59
2021/08/12 06:05:30;;;;;;;6.97;4.05;;;;;;;24.82;57.42;98414.34;5027065;28;20410;-62
2021/08/12 06:07:55;;;;;;;9.80;4.30;;;;;;;24.72;56.51;98420.66;5028164;28;20923;-62
2021/08/12 06:10:22;;;;;;;8.67;4.27;;;;;;;24.68;56.14;98419.28;5026536;28;20060;-61
2021/08/12 06:12:47;;;;;;;6.75;4.10;;;;;;;25.18;55.07;98422.53;5028152;28;20271;-62
2021/08/12 06:15:12;;;;;;;6.53;4.20;;;;;;;24.84;55.85;98408.84;5024698;28;20032;-61
2021/08/12 06:17:38;;;;;;;8.27;4.00;;;;;;;26.03;52.03;98410.94;5025666;28;20678;-61
2021/08/12 06:20:06;;;;;;;6.68;4.07;;;;;;;26.02;52.07;98410.09;5024750;28;20264;-62
2021/08/12 06:22:31;;;;;;;6.68;4.30;;;;;;;25.58;53.42;98410.75;5028751;28;20091;-62
2021/08/12 06:24:56;;;;;;;7.35;4.35;;;;;;;24.48;56.42;98407.75;5028515;28;20033;-64
2021/08/12 06:27:22;;;;;;;9.35;4.35;;;;;;;25.01;55.00;98415.28;5026300;28;20646;-61
2021/08/12 06:29:47;;;;;;;7.22;4.05;;;;;;;25.17;54.06;98415.50;5026335;28;20038;-65
2021/08/12 06:32:12;;;;;;;6.13;4.25;;;;;;;24.52;55.07;98414.47;5026096;28;20087;-63
2021/08/12 06:34:37;;;;;;;6.82;4.00;;;;;;;25.15;54.48;98411.31;5028561;28;20025;-61
2021/08/12 06:37:03;;;;;;;6.65;4.07;;;;;;;26.39;51.00;98413.63;5026895;28;20482;-61
2021/08/12 06:39:29;;;;;;;7.28;4.25;;;;;;;26.56;50.53;98415.44;5024246;28;20104;-62
2021/08/12 06:41:55;;;;;;;6.82;4.15;;;;;;;25.86;50.99;98416.09;5023162;28;20615;-62
2021/08/12 06:44:22;;;;;;;7.40;4.20;;;;;;;27.23;48.90;98407.72;4997326;28;20171;-64
2021/08/12 06:46:50;;;;;;;6.78;4.10;;;;;;;27.64;47.72;98401.75;5027663;28;20069;-62
2021/08/12 06:49:15;;;;;;;6.18;4.03;;;;;;;28.26;47.22;98407.63;5024026;28;20399;-64
2021/08/12 06:51:41;;;;;;;5.65;3.70;;;;;;;29.09;45.67;98403.06;5024625;28;20491;-62
2021/08/12 06:54:06;;;;;;;6.60;3.78;;;;;;;29.93;42.41;98406.16;5024226;28;20391;-64
2021/08/12 06:56:31;;;;;;;7.17;4.00;;;;;;;31.35;40.48;98394.06;5026302;28;20049;-63
2021/08/12 06:58:57;;;;;;;7.00;3.80;;;;;;;28.56;44.72;98402.66;5029454;28;20295;-64
2021/08/12 07:01:22;;;;;;;7.03;4.00;;;;;;;30.20;42.80;98395.94;5027759;28;20176;-62
2021/08/12 07:03:47;;;;;;;5.67;3.70;;;;;;;31.42;40.06;98392.31;5027039;28;20026;-62
2021/08/12 07:06:12;;;;;;;6.03;3.80;;;;;;;32.57;37.91;98393.41;5029319;28;20308;-60
2021/08/12 07:08:39;;;;;;;5.67;3.87;;;;;;;33.21;37.76;98400.56;5030365;28;20256;-63
2021/08/12 07:11:04;;;;;;;6.78;3.78;;;;;;;32.02;39.23;98396.59;5030529;28;20330;-60
2021/08/12 07:13:30;;;;;;;7.10;3.90;;;;;;;32.33;38.18;98392.78;5031599;28;20033;-61
2021/08/12 07:15:55;;;;;;;5.35;3.75;;;;;;;33.49;36.61;98403.25;5028763;28;20799;-62
2021/08/12 07:18:20;;;;;;;6.43;3.47;;;;;;;33.72;36.63;98396.72;5030819;28;20155;-60
2021/08/12 07:20:47;;;;;;;7.77;3.60;;;;;;;33.15;36.68;98407.59;5029490;28;20033;-61
2021/08/12 07:23:13;;;;;;;8.68;3.45;;;;;;;32.87;37.52;98414.88;5031245;28;20248;-60
2021/08/12 07:25:38;;;;;;;6.60;3.60;;;;;;;33.03;37.41;98411.84;5030946;28;20037;-63
2021/08/12 07:28:04;;;;;;;5.85;3.45;;;;;;;32.85;36.99;98418.59;5029821;28;20674;-62
2021/08/12 07:30:29;;;;;;;5.30;3.33;;;;;;;30.88;41.97;98413.06;5030778;28;20617;-62
2021/08/12 07:32:54;;;;;;;6.22;3.38;;;;;;;34.40;35.57;98417.53;5026700;28;20025;-61
2021/08/12 07:35:21;;;;;;;4.93;3.50;;;;;;;34.49;34.47;98411.69;5031991;28;20024;-63
2021/08/12 07:37:46;;;;;;;6.93;3.35;;;;;;;34.31;34.59;98417.72;5027900;28;20803;-62
2021/08/12 07:40:12;;;;;;;4.97;3.50;;;;;;;35.22;33.88;98413.59;5030918;28;20041;-62
2021/08/12 07:42:37;;;;;;;6.97;3.30;;;;;;;33.72;36.55;98412.94;5026929;28;20052;-62
2021/08/12 07:45:06;;;;;;;9.23;3.70;;;;;;;33.30;37.27;98410.19;5029025;28;20171;-62
2021/08/12 07:47:32;;;;;;;9.05;3.47;;;;;;;35.11;34.98;98412.34;5026409;28;20482;-62
2021/08/12 07:49:58;;;;;;;5.03;3.40;;;;;;;34.44;35.40;98416.06;5027579;28;20032;-61
2021/08/12 07:52:23;;;;;;;4.95;3.25;;;;;;;31.45;39.68;98408.09;5029652;28;20030;-63
2021/08/12 07:54:50;;;;;;;8.00;3.50;;;;;;;32.84;38.23;98407.97;5030184;28;20707;-61
2021/08/12 07:57:16;;;;;;;7.65;3.58;;;;;;;32.83;38.96;98403.63;5029938;28;20446;-63
2021/08/12 07:59:41;;;;;;;6.80;3.70;;;;;;;32.14;39.32;98406.91;5030146;28;20032;-62
2021/08/12 08:02:07;;;;;;;4.80;3.50;;;;;;;32.35;38.83;98404.22;5026711;28;20033;-62
2021/08/12 08:04:32;;;;;;;5.85;3.45;;;;;;;32.07;39.70;98402.28;5028859;28;20461;-61
2021/08/12 08:06:59;;;;;;;7.13;3.70;;;;;;;32.25;40.23;98407.22;5028981;28;20131;-63
2021/08/12 08:09:25;;;;;;;6.05;3.63;;;;;;;34.04;36.61;98405.13;5031068;28;20263;-62
2021/08/12 08:11:50;;;;;;;6.03;3.45;;;;;;;33.01;38.05;98397.72;5027968;28;20050;-62
2021/08/12 08:14:16;;;;;;;5.05;3.35;;;;;;;33.27;38.13;98398.94;5029626;28;21049;-63
2021/08/12 08:16:42;;;;;;;6.30;3.30;;;;;;;35.50;35.13;98394.31;5026934;28;20083;-61
2021/08/12 08:19:08;;;;;;;6.15;3.45;;;;;;;33.76;37.41;98396.09;5029869;28;20028;-62
2021/08/12 08:21:33;;;;;;;5.00;3.60;;;;;;;34.32;36.69;98384.19;5030556;28;20029;-61
2021/08/12 08:23:58;;;;;;;6.68;3.60;;;;;;;34.66;36.17;98387.72;5030879;28;20317;-63
2021/08/12 08:26:24;;;;;;;9.53;3.63;;;;;;;34.95;35.92;98386.50;5031020;28;20624;-61
2021/08/12 08:28:49;;;;;;;8.40;3.70;;;;;;;34.56;36.08;98387.34;5027973;28;20272;-61
2021/08/12 08:31:14;;;;;;;10.93;4.00;;;;;;;34.43;36.99;98395.44;5028759;28;20425;-63
2021/08/12 08:33:40;;;;;;;5.57;3.40;;;;;;;35.29;35.79;98386.44;5032143;28;20329;-61
2021/08/12 08:36:06;;;;;;;5.72;3.50;;;;;;;34.06;37.20;98387.66;5027694;28;20037;-62
2021/08/12 08:38:34;;;;;;;9.57;3.60;;;;;;;33.97;37.51;98387.00;5026913;28;20041;-63
2021/08/12 08:41:01;;;;;;;5.63;3.60;;;;;;;34.81;37.19;98390.25;5028983;28;20044;-61
2021/08/12 08:43:30;;;;;;;9.95;3.67;;;;;;;33.87;37.67;98378.44;5026159;28;20087;-62
2021/08/12 08:45:56;;;;;;;9.88;3.75;;;;;;;32.85;39.03;98393.47;5028235;28;20519;-61
2021/08/12 08:48:24;;;;;;;6.75;3.60;;;;;;;35.46;34.71;98387.66;5028842;28;20044;-61
2021/08/12 08:50:52;;;;;;;6.53;3.60;;;;;;;34.91;36.41;98381.72;5025441;28;20143;-61
2021/08/12 08:53:18;;;;;;;7.47;3.58;;;;;;;35.27;36.41;98383.13;5027813;28;20046;-63
2021/08/12 08:55:45;;;;;;;6.78;3.90;;;;;;;33.32;40.75;98388.38;5036423;28;20114;-63
2021/08/12 08:58:11;;;;;;;7.18;3.60;;;;;;;35.34;35.94;98383.94;5028189;28;20025;-61
2021/08/12 09:00:37;;;;;;;6.60;3.50;;;;;;;34.17;38.53;98391.69;5026482;28;20045;-64
2021/08/12 09:03:03;;;;;;;8.52;4.00;;;;;;;33.59;39.20;98387.47;5028881;28;20051;-61
2021/08/12 09:05:28;;;;;;;7.22;3.80;;;;;;;34.43;36.61;98387.31;5027805;28;20148;-61
2021/08/12 09:07:54;;;;;;;7.85;3.45;;;;;;;34.81;36.05;98384.00;5027889;28;20029;-61
2021/08/12 09:10:19;;;;;;;5.97;3.92;;;;;;;38.28;31.52;98381.44;5027854;28;20478;-60
2021/08/12 09:12:45;;;;;;;4.72;3.33;;;;;;;36.48;34.02;98381.50;5027647;28;20025;-62
2021/08/12 09:15:13;;;;;;;6.88;3.67;;;;;;;38.67;30.95;98374.53;5027331;28;20091;-61
2021/08/12 09:17:39;;;;;;;7.10;3.35;;;;;;;35.88;34.57;98371.84;5035423;28;20371;-61
2021/08/12 09:20:22;;;;;;;6.50;3.78;;;;;;;37.33;31.91;98375.53;5029083;28;20533;-62
2021/08/12 09:23:01;;;;;;;9.10;3.70;;;;;;;37.32;32.71;98367.59;5028212;28;20017;-61
2021/08/12 09:25:33;;;;;;;7.95;3.65;;;;;;;35.43;35.30;98360.97;5028637;28;20330;-63
2021/08/12 09:28:24;;;;;;;5.97;3.35;;;;;;;34.46;35.92;98366.06;5027100;28;20025;-64
2021/08/12 09:31:08;;;;;;;6.72;3.70;;;;;;;36.35;33.49;98357.16;5029828;28;20037;-62
2021/08/12 09:33:45;;;;;;;4.85;3.50;;;;;;;35.53;34.32;98349.69;5028698;28;20084;-62
2021/08/12 09:36:36;;;;;;;6.03;3.50;;;;;;;35.48;34.38;98357.63;5028841;28;20033;-63
2021/08/12 09:39:06;;;;;;;6.50;3.47;;;;;;;33.08;38.12;98352.66;5027063;28;20029;-64
2021/08/12 09:41:38;;;;;;;7.80;3.53;;;;;;;34.06;36.29;98349.78;5027127;28;20056;-63
2021/08/12 09:44:03;;;;;;;6.03;3.70;;;;;;;33.04;39.96;98363.03;5030657;28;20029;-61
2021/08/12 09:46:34;;;;;;;8.15;3.38;;;;;;;33.57;38.26;98362.50;5027794;28;20033;-63
2021/08/12 09:49:00;;;;;;;5.07;3.47;;;;;;;33.59;38.99;98368.53;5027088;28;20023;-62
2021/08/12 09:51:33;;;;;;;6.65;3.80;;;;;;;35.38;35.76;98357.22;5027024;28;20045;-63
2021/08/12 09:54:03;;;;;;;5.35;3.30;;;;;;;35.17;35.45;98350.19;5044267;28;20036;-64
2021/08/12 09:56:29;;;;;;;6.80;3.43;;;;;;;36.07;33.71;98353.78;5026920;28;20037;-61
2021/08/12 09:59:05;;;;;;;7.68;3.20;;;;;;;37.42;32.26;98346.97;5028655;28;20021;-63
2021/08/12 10:01:30;;;;;;;5.55;3.35;;;;;;;35.10;35.13;98345.59;5025071;28;20041;-60
2021/08/12 10:03:55;;;;;;;5.17;3.30;;;;;;;36.29;32.65;98342.59;5028137;28;20442;-62
2021/08/12 10:06:22;;;;;;;6.73;3.50;;;;;;;35.28;34.53;98341.41;5027638;28;20304;-64
2021/08/12 10:08:49;;;;;;;7.95;3.63;;;;;;;34.47;34.59;98347.97;5028402;28;20025;-61
2021/08/12 10:11:34;;;;;;;5.80;3.50;;;;;;;35.41;34.04;98341.34;5026728;28;20119;-62
2021/08/12 10:14:02;;;;;;;8.05;3.60;;;;;;;37.11;31.66;98336.19;5026547;28;20049;-62
2021/08/12 10:16:33;;;;;;;4.43;3.17;;;;;;;37.08;31.97;98340.22;5025629;28;20125;-62
2021/08/12 10:18:59;;;;;;;7.82;3.60;;;;;;;36.48;31.48;98340.75;5028101;28;20099;-62
2021/08/12 10:21:25;;;;;;;6.65;3.13;;;;;;;35.85;33.07;98337.00;5027859;28;20041;-62
2021/08/12 10:23:54;;;;;;;6.15;3.80;;;;;;;34.19;35.15;98332.75;5028745;28;20037;-61
2021/08/12 10:26:24;;;;;;;6.55;3.60;;;;;;;34.19;36.40;98332.75;5028211;28;20129;-64
2021/08/12 10:28:55;;;;;;;7.93;3.38;;;;;;;35.84;32.30;98332.63;5026951;28;20029;-63
2021/08/12 10:31:24;;;;;;;6.72;3.50;;;;;;;34.02;35.47;98326.84;5027126;28;20903;-63
2021/08/12 10:33:50;;;;;;;4.80;3.20;;;;;;;36.13;32.40;98327.63;5025895;28;20057;-64
2021/08/12 10:36:17;;;;;;;7.80;3.45;;;;;;;33.70;35.74;98333.88;5028829;28;20719;-64
2021/08/12 10:38:42;;;;;;;8.35;3.33;;;;;;;33.59;35.51;98322.56;5030314;28;20152;-61
2021/08/12 10:41:08;;;;;;;8.30;3.45;;;;;;;34.93;34.55;98317.31;5029903;28;20086;-64
2021/08/12 10:43:35;;;;;;;7.55;3.33;;;;;;;35.54;33.64;98317.94;5030345;28;20136;-61
2021/08/12 10:46:02;;;;;;;9.07;3.13;;;;;;;34.24;34.87;98314.00;5031061;28;20041;-61
2021/08/12 10:48:28;;;;;;;4.95;3.30;;;;;;;34.81;33.70;98318.97;5032329;28;20116;-62
2021/08/12 10:51:10;;;;;;;5.53;3.50;;;;;;;34.49;33.13;98318.78;5027994;28;20068;-61
2021/08/12 10:53:36;;;;;;;6.05;3.60;;;;;;;35.91;31.15;98313.56;5031483;28;20156;-61
2021/08/12 10:56:19;;;;;;;7.15;3.50;;;;;;;34.62;33.51;98315.25;5029820;28;20096;-62
2021/08/12 10:58:49;;;;;;;6.28;3.47;;;;;;;35.24;32.88;98313.06;5030816;28;20033;-62
2021/08/12 11:01:31;;;;;;;5.30;3.40;;;;;;;36.16;30.74;98310.91;5029263;28;20128;-60
2021/08/12 11:04:01;;;;;;;4.88;3.40;;;;;;;34.92;33.08;98315.63;5030695;28;20036;-61
2021/08/12 11:06:44;;;;;;;9.82;3.90;;;;;;;32.90;35.45;98306.41;5028155;28;20050;-60
2021/08/12 11:09:11;;;;;;;5.68;3.50;;;;;;;34.84;34.18;98305.84;5030392;28;20423;-63
2021/08/12 11:11:36;;;;;;;5.53;3.40;;;;;;;34.22;34.05;98307.94;5029504;28;20147;-62
2021/08/12 11:14:07;;;;;;;7.13;3.93;;;;;;;33.32;34.50;98308.09;5029480;28;20144;-62
2021/08/12 11:16:41;;;;;;;6.95;3.97;;;;;;;32.46;36.71;98302.97;5027250;28;20099;-63
2021/08/12 11:19:22;;;;;;;6.75;3.90;;;;;;;34.16;33.44;98300.63;5030340;28;20029;-61
2021/08/12 11:21:49;;;;;;;5.60;3.77;;;;;;;32.53;36.05;98297.63;5029083;28;20103;-62
2021/08/12 11:24:17;;;;;;;6.18;3.50;;;;;;;35.03;33.12;98293.28;5030736;28;20045;-60
2021/08/12 11:26:44;;;;;;;6.80;3.80;;;;;;;33.50;35.72;98302.13;5027731;28;20041;-62
2021/08/12 11:29:38;;;;;;;6.25;3.90;;;;;;;34.68;35.10;98303.56;5030137;28;20025;-62
2021/08/12 11:32:07;;;;;;;8.27;3.80;;;;;;;31.18;38.79;98296.44;5028202;28;20524;-60
2021/08/12 11:34:42;;;;;;;5.82;3.75;;;;;;;32.12;37.43;98296.47;5030973;28;20026;-60